Time;durP1;ratioP1;P1;durP2;ratioP2;P2;SDS_P1;SDS_P2;PMS_P1;PMS_P2;Temp;Humidity;BMP_temperature;BMP_pressure;BME280_temperature;BME280_humidity;BME280_pressure;Samples;Min_cycle;Max_cycle;Signal;HPM_P1;HPM_P2
2022/09/25 00:01:34;;;;;;;0.50;0.50;;;9.60;99.90;;;;;;5009823;27;20443;-80
2022/09/25 00:04:00;;;;;;;0.50;0.50;;;9.60;99.90;;;;;;5001101;27;20079;-80
2022/09/25 00:06:28;;;;;;;0.60;0.60;;;9.60;99.90;;;;;;5027772;27;20563;-80
2022/09/25 00:08:55;;;;;;;0.50;0.50;;;9.50;99.90;;;;;;4999143;27;20055;-79
2022/09/25 00:11:27;;;;;;;0.50;0.50;;;9.40;99.90;;;;;;5017276;27;20243;-80
2022/09/25 00:13:55;;;;;;;0.50;0.50;;;9.40;99.90;;;;;;5013618;27;20491;-80
2022/09/25 00:16:27;;;;;;;0.50;0.50;;;9.40;99.90;;;;;;5020760;27;20237;-80
2022/09/25 00:21:40;;;;;;;0.60;0.60;;;9.20;99.90;;;;;;5011806;27;20097;-79
2022/09/25 00:24:09;;;;;;;0.60;0.60;;;9.20;99.90;;;;;;5034545;27;20047;-82
2022/09/25 00:26:41;;;;;;;0.60;0.60;;;9.20;99.90;;;;;;5039225;27;20175;-82
2022/09/25 00:29:13;;;;;;;0.50;0.50;;;9.10;99.90;;;;;;5014407;27;20074;-82
2022/09/25 00:31:39;;;;;;;0.60;0.60;;;9.10;99.90;;;;;;5016359;27;20932;-82
2022/09/25 00:34:05;;;;;;;0.60;0.60;;;9.20;99.90;;;;;;4993387;27;20047;-82
2022/09/25 00:36:32;;;;;;;0.50;0.50;;;9.20;99.90;;;;;;4975632;27;20047;-82
2022/09/25 00:38:58;;;;;;;0.50;0.50;;;9.20;99.90;;;;;;5024313;27;20562;-82
2022/09/25 00:41:26;;;;;;;0.60;0.60;;;9.10;99.90;;;;;;5009919;27;21144;-82
2022/09/25 00:43:55;;;;;;;0.52;0.52;;;9.10;99.90;;;;;;5007653;27;20093;-82
2022/09/25 00:46:30;;;;;;;0.60;0.60;;;9.10;99.90;;;;;;5005931;27;20802;-82
2022/09/25 00:48:56;;;;;;;0.50;0.50;;;9.10;99.90;;;;;;5015167;27;20525;-82
2022/09/25 00:51:28;;;;;;;0.60;0.60;;;9.10;99.90;;;;;;5010120;27;20415;-82
2022/09/25 00:54:14;;;;;;;0.50;0.50;;;9.20;99.90;;;;;;5005889;27;20290;-82
2022/09/25 00:56:45;;;;;;;0.60;0.60;;;9.10;99.90;;;;;;5024716;27;20048;-82
2022/09/25 00:59:16;;;;;;;0.50;0.50;;;9.10;99.90;;;;;;5004220;27;20812;-80
2022/09/25 01:01:43;;;;;;;0.50;0.50;;;9.10;99.90;;;;;;5023742;27;20154;-81
2022/09/25 01:04:11;;;;;;;0.50;0.50;;;8.90;99.90;;;;;;5003873;27;20205;-80
2022/09/25 01:06:38;;;;;;;0.50;0.50;;;8.90;99.90;;;;;;5002259;27;20048;-81
2022/09/25 01:09:04;;;;;;;0.50;0.50;;;8.80;99.90;;;;;;5003433;27;20054;-81
2022/09/25 01:11:30;;;;;;;0.50;0.50;;;8.70;99.90;;;;;;4986948;27;20274;-81
2022/09/25 01:13:59;;;;;;;0.50;0.50;;;8.70;99.90;;;;;;5003960;27;20312;-81
2022/09/25 01:16:43;;;;;;;0.50;0.50;;;8.70;99.90;;;;;;5022152;27;20052;-81
2022/09/25 01:19:34;;;;;;;0.60;0.60;;;8.60;99.90;;;;;;5002669;27;20107;-80
2022/09/25 01:22:19;;;;;;;0.50;0.50;;;8.60;99.90;;;;;;5032014;27;20050;-81
2022/09/25 01:25:09;;;;;;;0.60;0.60;;;8.50;99.90;;;;;;5029704;27;20048;-81
2022/09/25 01:27:44;;;;;;;0.50;0.50;;;8.60;99.90;;;;;;5040002;27;20058;-81
2022/09/25 01:30:17;;;;;;;0.60;0.60;;;8.50;99.90;;;;;;5026390;27;20047;-81
2022/09/25 01:32:42;;;;;;;0.60;0.60;;;8.50;99.90;;;;;;5037937;27;20146;-81
2022/09/25 01:35:18;;;;;;;0.60;0.60;;;8.50;99.90;;;;;;5035980;27;20039;-80
2022/09/25 01:38:02;;;;;;;0.60;0.60;;;8.30;99.90;;;;;;5020021;27;20727;-81
2022/09/25 01:41:10;;;;;;;0.50;0.50;;;8.30;99.90;;;;;;5014499;27;20146;-81
2022/09/25 01:43:44;;;;;;;0.60;0.60;;;8.30;99.90;;;;;;5002758;27;20167;-81
2022/09/25 01:46:18;;;;;;;0.50;0.50;;;8.30;99.90;;;;;;5002649;27;20059;-81
2022/09/25 01:48:46;;;;;;;;;;;8.20;99.90;;;;;;5006821;28;20122;-82
2022/09/25 01:51:15;;;;;;;0.50;0.50;;;8.20;99.90;;;;;;5011043;27;20778;-81
2022/09/25 01:53:49;;;;;;;0.50;0.50;;;8.20;99.90;;;;;;5016552;27;20401;-81
2022/09/25 01:56:58;;;;;;;0.60;0.60;;;8.20;99.90;;;;;;5009680;27;20111;-82
2022/09/25 01:59:44;;;;;;;0.60;0.60;;;8.10;99.90;;;;;;5005238;27;20665;-80
2022/09/25 02:02:15;;;;;;;0.50;0.50;;;8.10;99.90;;;;;;5003359;28;20151;-82
2022/09/25 02:05:00;;;;;;;0.60;0.60;;;8.10;99.90;;;;;;5009598;28;20048;-81
2022/09/25 02:07:34;;;;;;;0.60;0.60;;;8.00;99.90;;;;;;5002890;27;20243;-82
2022/09/25 02:10:15;;;;;;;0.60;0.60;;;8.00;99.90;;;;;;5003509;27;20616;-82
2022/09/25 02:12:46;;;;;;;0.60;0.60;;;8.10;99.90;;;;;;5002081;28;20051;-82
2022/09/25 02:15:20;;;;;;;0.60;0.60;;;8.10;99.90;;;;;;5004423;27;20048;-81
2022/09/25 02:21:11;;;;;;;0.55;0.55;;;8.00;99.90;;;;;;5002521;27;20059;-82
2022/09/25 02:23:47;;;;;;;0.60;0.60;;;8.10;99.90;;;;;;5004377;28;20036;-82
2022/09/25 02:26:34;;;;;;;0.60;0.60;;;8.00;99.90;;;;;;5001309;28;20082;-82
2022/09/25 02:29:01;;;;;;;0.60;0.60;;;7.90;99.90;;;;;;5000575;28;20075;-82
2022/09/25 02:31:53;;;;;;;0.50;0.50;;;7.90;99.90;;;;;;5006816;28;21652;-82
2022/09/25 02:34:21;;;;;;;0.60;0.60;;;7.80;99.90;;;;;;5001364;27;20060;-82
2022/09/25 02:36:47;;;;;;;0.60;0.60;;;7.80;99.90;;;;;;5002787;28;20647;-81
2022/09/25 02:39:17;;;;;;;0.60;0.60;;;7.70;99.90;;;;;;5021980;27;20055;-82
2022/09/25 02:42:03;;;;;;;0.52;0.52;;;7.70;99.90;;;;;;5016231;27;20051;-81
2022/09/25 02:45:06;;;;;;;0.60;0.60;;;7.60;99.90;;;;;;4999466;28;21354;-82
2022/09/25 02:48:21;;;;;;;0.60;0.60;;;7.60;99.90;;;;;;4994076;27;20056;-82
2022/09/25 02:51:19;;;;;;;0.50;0.50;;;7.60;99.90;;;;;;5001797;28;20164;-82
2022/09/25 02:54:11;;;;;;;0.60;0.60;;;7.60;99.90;;;;;;4995126;28;20387;-82
2022/09/25 02:57:15;;;;;;;0.60;0.60;;;7.70;99.90;;;;;;4997713;28;20785;-81
2022/09/25 02:59:51;;;;;;;0.60;0.60;;;7.70;99.90;;;;;;5006753;28;20470;-82
2022/09/25 03:02:19;;;;;;;0.50;0.50;;;7.70;99.90;;;;;;5000470;28;20583;-82
2022/09/25 03:04:47;;;;;;;0.60;0.60;;;7.50;99.90;;;;;;5009225;27;20071;-82
2022/09/25 03:07:15;;;;;;;0.60;0.60;;;7.50;99.90;;;;;;5009640;28;20048;-82
2022/09/25 03:09:45;;;;;;;0.60;0.60;;;7.50;99.90;;;;;;5009859;27;20073;-82
2022/09/25 03:12:13;;;;;;;0.60;0.60;;;7.40;99.90;;;;;;5009509;27;20044;-82
2022/09/25 03:14:39;;;;;;;0.60;0.60;;;7.40;99.90;;;;;;5003425;27;21046;-82
2022/09/25 03:17:08;;;;;;;0.50;0.50;;;7.40;99.90;;;;;;5003448;28;20044;-82
2022/09/25 03:19:34;;;;;;;0.55;0.55;;;7.40;99.90;;;;;;5015822;28;20844;-82
2022/09/25 03:22:00;;;;;;;0.50;0.50;;;7.40;99.90;;;;;;5018568;28;20047;-82
2022/09/25 03:24:26;;;;;;;0.60;0.60;;;7.40;99.90;;;;;;5016583;28;20926;-82
2022/09/25 03:26:53;;;;;;;0.60;0.60;;;7.30;99.90;;;;;;5010161;28;20047;-82
2022/09/25 03:29:20;;;;;;;0.60;0.60;;;7.30;99.90;;;;;;5011023;27;20624;-82
2022/09/25 03:31:46;;;;;;;0.60;0.60;;;7.40;99.90;;;;;;5009454;28;20546;-82
2022/09/25 03:34:15;;;;;;;0.60;0.60;;;7.30;99.90;;;;;;5009205;28;20047;-82
2022/09/25 03:36:41;;;;;;;0.60;0.60;;;7.30;99.90;;;;;;5010343;28;20108;-82
2022/09/25 03:39:09;;;;;;;0.60;0.60;;;7.30;99.90;;;;;;4992388;28;20071;-82
2022/09/25 03:41:36;;;;;;;0.60;0.60;;;7.30;99.90;;;;;;5019364;28;20062;-82
2022/09/25 03:44:03;;;;;;;0.60;0.60;;;7.30;99.90;;;;;;5008904;28;20048;-82
2022/09/25 03:46:34;;;;;;;0.60;0.60;;;7.30;99.90;;;;;;5006304;28;20044;-81
2022/09/25 03:49:00;;;;;;;0.60;0.60;;;7.20;99.90;;;;;;4985454;28;20040;-82
2022/09/25 03:51:29;;;;;;;0.60;0.60;;;7.20;99.90;;;;;;5003207;28;20060;-82
2022/09/25 03:53:55;;;;;;;0.50;0.50;;;7.20;99.90;;;;;;5009888;28;20305;-82
2022/09/25 03:56:24;;;;;;;0.60;0.60;;;7.10;99.90;;;;;;5008375;28;20048;-82
2022/09/25 03:58:53;;;;;;;0.60;0.60;;;7.10;99.90;;;;;;5011769;28;20074;-82
2022/09/25 04:01:20;;;;;;;0.60;0.60;;;7.10;99.90;;;;;;5002092;28;20264;-83
2022/09/25 04:03:47;;;;;;;0.50;0.50;;;7.10;99.90;;;;;;5007651;28;20272;-82
2022/09/25 04:06:22;;;;;;;0.52;0.52;;;7.10;99.90;;;;;;5017534;28;20451;-82
2022/09/25 04:08:49;;;;;;;0.60;0.60;;;7.10;99.90;;;;;;5001364;28;20078;-82
2022/09/25 04:11:16;;;;;;;0.60;0.60;;;7.10;99.90;;;;;;5000011;28;20043;-82
2022/09/25 04:13:45;;;;;;;0.60;0.60;;;7.10;99.90;;;;;;5005322;28;20773;-82
2022/09/25 04:16:14;;;;;;;0.60;0.60;;;7.10;99.90;;;;;;4996044;28;20048;-82
2022/09/25 04:18:42;;;;;;;0.60;0.60;;;7.20;99.90;;;;;;5002604;28;20440;-82
2022/09/25 04:21:10;;;;;;;0.60;0.60;;;7.10;99.90;;;;;;4993899;28;20048;-82
2022/09/25 04:23:36;;;;;;;0.60;0.60;;;7.10;99.90;;;;;;4987885;28;20059;-82
2022/09/25 04:26:06;;;;;;;0.60;0.60;;;7.10;99.90;;;;;;4999476;28;20039;-82
2022/09/25 04:28:33;;;;;;;0.60;0.60;;;7.00;99.90;;;;;;5014762;28;20221;-83
2022/09/25 04:30:59;;;;;;;0.60;0.60;;;7.10;99.90;;;;;;5004090;28;20047;-82
2022/09/25 04:36:09;;;;;;;0.60;0.60;;;7.10;99.90;;;;;;5002043;28;20048;-82
2022/09/25 04:38:35;;;;;;;0.60;0.60;;;7.10;99.90;;;;;;5016568;28;20112;-82
2022/09/25 04:41:02;;;;;;;0.70;0.70;;;7.00;99.90;;;;;;5016690;27;20409;-82
2022/09/25 04:43:29;;;;;;;0.60;0.60;;;6.90;99.90;;;;;;5011823;27;20062;-82
2022/09/25 04:46:00;;;;;;;0.60;0.60;;;6.90;99.90;;;;;;5009544;27;20055;-82
2022/09/25 04:48:26;;;;;;;0.60;0.60;;;6.90;99.90;;;;;;5005639;27;20822;-83
2022/09/25 04:50:52;;;;;;;0.60;0.60;;;6.90;99.90;;;;;;4991215;27;20047;-82
2022/09/25 04:53:18;;;;;;;0.60;0.60;;;6.90;99.90;;;;;;5008604;27;20998;-81
2022/09/25 04:55:45;;;;;;;0.60;0.60;;;6.90;99.90;;;;;;5024429;27;20051;-82
2022/09/25 04:58:11;;;;;;;0.60;0.60;;;6.90;99.90;;;;;;5007218;27;20652;-82
2022/09/25 05:00:37;;;;;;;0.60;0.60;;;6.90;99.90;;;;;;5026857;27;20043;-83
2022/09/25 05:03:03;;;;;;;0.60;0.60;;;6.90;99.90;;;;;;5007670;27;20199;-82
2022/09/25 05:05:30;;;;;;;0.60;0.60;;;6.80;99.90;;;;;;5024251;27;20047;-82
2022/09/25 05:07:58;;;;;;;0.60;0.60;;;6.80;99.90;;;;;;5030200;27;20310;-83
2022/09/25 05:10:27;;;;;;;0.60;0.60;;;6.80;99.90;;;;;;4993326;27;20040;-83
2022/09/25 05:13:03;;;;;;;0.60;0.60;;;6.80;99.90;;;;;;5003448;27;20578;-83
2022/09/25 05:15:31;;;;;;;0.60;0.60;;;6.80;99.90;;;;;;5008443;27;20051;-82
2022/09/25 05:18:11;;;;;;;0.60;0.60;;;6.80;99.90;;;;;;5013163;27;20733;-83
2022/09/25 05:20:37;;;;;;;0.60;0.60;;;6.80;99.90;;;;;;4997311;28;20051;-81
2022/09/25 05:23:04;;;;;;;0.60;0.60;;;6.80;99.90;;;;;;5008651;27;20055;-82
2022/09/25 05:25:31;;;;;;;0.70;0.70;;;6.80;99.90;;;;;;5009083;27;20400;-82
2022/09/25 05:27:58;;;;;;;0.60;0.60;;;7.00;99.90;;;;;;4995749;27;20671;-82
2022/09/25 05:30:26;;;;;;;0.60;0.60;;;7.00;99.90;;;;;;5011128;27;20083;-82
2022/09/25 05:32:53;;;;;;;0.60;0.60;;;7.10;99.90;;;;;;5010614;27;20532;-82
2022/09/25 05:35:21;;;;;;;0.60;0.60;;;7.20;99.90;;;;;;5003361;27;20404;-83
2022/09/25 05:37:47;;;;;;;0.70;0.70;;;7.10;99.90;;;;;;5012404;27;20769;-83
2022/09/25 05:40:16;;;;;;;0.60;0.60;;;7.20;99.90;;;;;;5013863;27;20048;-82
2022/09/25 05:42:43;;;;;;;0.60;0.60;;;7.20;99.90;;;;;;5019290;27;20187;-83
2022/09/25 05:45:13;;;;;;;0.60;0.60;;;7.10;99.90;;;;;;5022599;27;20122;-84
2022/09/25 05:47:40;;;;;;;0.60;0.60;;;7.20;99.90;;;;;;5016260;28;20051;-82
2022/09/25 05:50:08;;;;;;;0.60;0.60;;;7.20;99.90;;;;;;5007102;27;20062;-81
2022/09/25 05:52:34;;;;;;;0.57;0.57;;;7.20;99.90;;;;;;5002467;27;20153;-82
2022/09/25 05:55:02;;;;;;;0.60;0.60;;;7.20;99.90;;;;;;5017559;27;20086;-83
2022/09/25 05:57:30;;;;;;;0.60;0.60;;;7.30;99.90;;;;;;5007132;27;20050;-84
2022/09/25 05:59:57;;;;;;;0.60;0.60;;;7.40;99.90;;;;;;5012651;27;20050;-83
2022/09/25 06:02:24;;;;;;;0.60;0.60;;;7.40;99.90;;;;;;4993282;27;20085;-83
2022/09/25 06:04:50;;;;;;;0.60;0.60;;;7.50;99.90;;;;;;5019413;27;20546;-83
2022/09/25 06:07:15;;;;;;;0.60;0.60;;;7.50;99.90;;;;;;5006728;28;20790;-82
2022/09/25 06:09:41;;;;;;;0.60;0.60;;;7.60;99.90;;;;;;5027862;27;20054;-83
2022/09/25 06:12:07;;;;;;;0.60;0.60;;;7.70;99.90;;;;;;5010763;27;20396;-81
2022/09/25 06:14:36;;;;;;;0.60;0.60;;;7.90;99.90;;;;;;5010192;27;20915;-83
2022/09/25 06:17:02;;;;;;;0.60;0.60;;;8.00;99.90;;;;;;4994231;27;20838;-83
2022/09/25 06:19:28;;;;;;;0.60;0.60;;;8.10;99.90;;;;;;5029992;27;20262;-81
2022/09/25 06:21:56;;;;;;;0.60;0.60;;;8.30;99.90;;;;;;5010993;27;20101;-82
2022/09/25 06:24:22;;;;;;;0.60;0.60;;;8.40;99.90;;;;;;5008112;27;20055;-82
2022/09/25 06:26:48;;;;;;;0.57;0.57;;;8.40;99.90;;;;;;4994690;28;20817;-82
2022/09/25 06:29:14;;;;;;;0.60;0.60;;;8.60;99.90;;;;;;5009803;27;20046;-83
2022/09/25 06:31:40;;;;;;;0.60;0.60;;;8.70;99.90;;;;;;5010645;27;20150;-82
2022/09/25 06:34:08;;;;;;;0.60;0.60;;;8.90;99.90;;;;;;5013340;27;20135;-82
2022/09/25 06:36:34;;;;;;;0.60;0.60;;;9.00;99.90;;;;;;5010177;27;20110;-82
2022/09/25 06:39:00;;;;;;;0.60;0.60;;;9.20;99.90;;;;;;5001462;27;20736;-81
2022/09/25 06:41:25;;;;;;;0.60;0.60;;;9.40;99.90;;;;;;5013387;27;20047;-82
2022/09/25 06:43:51;;;;;;;0.60;0.60;;;9.60;99.90;;;;;;5007634;27;20054;-83
2022/09/25 06:46:18;;;;;;;0.60;0.60;;;9.70;99.90;;;;;;5010783;27;20112;-82
2022/09/25 06:48:52;;;;;;;0.50;0.50;;;10.00;99.90;;;;;;5005857;27;20085;-81
2022/09/25 06:51:23;;;;;;;0.60;0.60;;;10.10;99.90;;;;;;5010400;27;20048;-82
2022/09/25 06:53:53;;;;;;;0.60;0.60;;;10.00;99.90;;;;;;5013060;27;20142;-81
2022/09/25 06:56:19;;;;;;;0.50;0.50;;;10.10;99.90;;;;;;5021842;27;20497;-81
2022/09/25 06:58:45;;;;;;;0.60;0.60;;;10.40;99.90;;;;;;5006719;27;20145;-81
2022/09/25 07:01:12;;;;;;;0.50;0.50;;;10.60;99.90;;;;;;5007837;27;20084;-81
2022/09/25 07:03:44;;;;;;;0.50;0.50;;;10.80;99.90;;;;;;5020068;27;20073;-81
2022/09/25 07:06:12;;;;;;;0.50;0.50;;;11.00;99.90;;;;;;4989492;27;20062;-82
2022/09/25 07:08:38;;;;;;;0.50;0.50;;;11.10;99.90;;;;;;5008866;27;20243;-83
2022/09/25 07:11:04;;;;;;;0.50;0.50;;;11.20;99.90;;;;;;5012317;27;20554;-81
2022/09/25 07:13:33;;;;;;;0.50;0.50;;;11.30;99.90;;;;;;5013566;27;20721;-83
2022/09/25 07:16:05;;;;;;;0.50;0.50;;;11.40;99.90;;;;;;5005116;27;20159;-82
2022/09/25 07:18:32;;;;;;;0.50;0.50;;;11.60;99.90;;;;;;5007511;27;20402;-82
2022/09/25 07:21:03;;;;;;;0.50;0.50;;;11.60;99.90;;;;;;5011095;27;20052;-82
2022/09/25 07:23:30;;;;;;;0.50;0.50;;;11.80;99.90;;;;;;5021661;27;20111;-81
2022/09/25 07:26:04;;;;;;;0.50;0.50;;;11.90;99.90;;;;;;5007414;27;20415;-81
2022/09/25 07:28:30;;;;;;;0.50;0.50;;;12.00;99.90;;;;;;5007878;28;20099;-82
2022/09/25 07:30:56;;;;;;;0.50;0.50;;;12.20;99.90;;;;;;4992588;27;20138;-82
2022/09/25 07:33:23;;;;;;;0.50;0.50;;;12.30;99.90;;;;;;5004350;27;20158;-81
2022/09/25 07:35:53;;;;;;;0.50;0.50;;;12.40;99.90;;;;;;5028531;27;20797;-81
2022/09/25 07:38:20;;;;;;;0.50;0.50;;;12.60;99.90;;;;;;5007196;28;20047;-81
2022/09/25 07:40:46;;;;;;;0.50;0.50;;;12.70;99.90;;;;;;5029106;27;20056;-81
2022/09/25 07:43:12;;;;;;;0.50;0.50;;;12.90;99.90;;;;;;5003374;28;20152;-82
2022/09/25 07:45:38;;;;;;;0.50;0.50;;;13.00;99.90;;;;;;4991294;28;20445;-81
2022/09/25 07:48:05;;;;;;;0.57;0.57;;;13.10;99.90;;;;;;5010871;28;20039;-81
2022/09/25 07:50:31;;;;;;;0.50;0.50;;;13.20;99.90;;;;;;5008784;28;20831;-81
2022/09/25 07:52:58;;;;;;;0.50;0.50;;;13.30;99.90;;;;;;4987968;28;20046;-81
2022/09/25 07:55:26;;;;;;;0.50;0.50;;;13.50;99.90;;;;;;5009380;28;20480;-82
2022/09/25 07:57:55;;;;;;;0.50;0.50;;;13.70;99.90;;;;;;5007015;28;20411;-81
2022/09/25 08:00:21;;;;;;;0.50;0.50;;;13.70;99.90;;;;;;5024423;28;20743;-81
2022/09/25 08:02:56;;;;;;;0.50;0.50;;;13.80;99.90;;;;;;5026050;28;20051;-82
2022/09/25 08:05:21;;;;;;;0.50;0.50;;;13.90;99.90;;;;;;5020089;28;20950;-83
2022/09/25 08:07:47;;;;;;;0.50;0.50;;;14.00;99.90;;;;;;5023301;28;20159;-82
2022/09/25 08:10:13;;;;;;;0.50;0.50;;;14.10;99.90;;;;;;5022810;27;20399;-81
2022/09/25 08:12:39;;;;;;;0.50;0.50;;;14.10;99.90;;;;;;5024045;27;20047;-80
2022/09/25 08:15:06;;;;;;;0.50;0.50;;;14.20;99.90;;;;;;5023802;27;20651;-81
2022/09/25 08:17:32;;;;;;;0.50;0.50;;;14.40;99.90;;;;;;5025457;27;20066;-80
2022/09/25 08:19:58;;;;;;;0.50;0.50;;;14.40;99.90;;;;;;5030697;27;20071;-81
2022/09/25 08:22:24;;;;;;;0.50;0.50;;;14.60;99.90;;;;;;5027733;27;20058;-81
2022/09/25 08:24:49;;;;;;;0.50;0.50;;;14.70;99.90;;;;;;5026430;27;20055;-83
2022/09/25 08:27:16;;;;;;;0.50;0.50;;;14.80;99.90;;;;;;5029710;27;20061;-81
2022/09/25 08:30:01;;;;;;;0.50;0.50;;;14.90;99.90;;;;;;5024952;27;20452;-82
2022/09/25 08:32:27;;;;;;;0.50;0.50;;;15.10;99.90;;;;;;5034678;27;20051;-82
2022/09/25 08:34:54;;;;;;;0.50;0.50;;;15.30;99.90;;;;;;5037318;27;20541;-80
2022/09/25 08:37:19;;;;;;;0.50;0.50;;;15.30;99.90;;;;;;5059793;27;20897;-82
2022/09/25 08:39:45;;;;;;;0.40;0.40;;;15.40;99.90;;;;;;5040649;27;20055;-81
2022/09/25 08:42:21;;;;;;;0.45;0.45;;;15.50;99.90;;;;;;5030538;27;20047;-80
2022/09/25 08:49:00;;;;;;;0.40;0.40;;;15.60;99.90;;;;;;5054779;27;20094;-81
2022/09/25 08:50:28;;;;;;;0.43;0.43;;;15.80;99.90;;;;;;5057845;27;20047;-81
2022/09/25 08:53:23;;;;;;;0.50;0.50;;;15.80;99.90;;;;;;5036043;27;20125;-82
2022/09/25 08:58:42;;;;;;;0.50;0.50;;;16.30;99.90;;;;;;5036786;27;20134;-82
2022/09/25 09:01:19;;;;;;;0.50;0.50;;;16.40;99.90;;;;;;5032844;27;20631;-79
2022/09/25 09:04:13;;;;;;;0.43;0.43;;;16.20;99.90;;;;;;5038182;27;20077;-83
2022/09/25 09:06:41;;;;;;;0.40;0.40;;;16.10;99.90;;;;;;4991196;27;20075;-80
2022/09/25 09:09:32;;;;;;;0.40;0.40;;;16.20;99.90;;;;;;5051105;27;20040;-80
2022/09/25 09:12:11;;;;;;;0.40;0.40;;;16.40;99.90;;;;;;5031120;28;21183;-80
2022/09/25 09:14:47;;;;;;;0.40;0.40;;;16.80;99.90;;;;;;5055235;27;20545;-80
2022/09/25 09:17:27;;;;;;;0.50;0.50;;;16.80;99.90;;;;;;5034185;27;20631;-80
2022/09/25 09:20:05;;;;;;;0.43;0.43;;;16.80;99.90;;;;;;5027308;27;20254;-80
2022/09/25 09:22:39;;;;;;;0.40;0.40;;;16.70;99.90;;;;;;5022191;27;20075;-77
2022/09/25 09:25:42;;;;;;;0.40;0.40;;;16.80;99.90;;;;;;5029475;27;20448;-80
2022/09/25 09:28:20;;;;;;;0.50;0.50;;;17.10;99.90;;;;;;5038166;27;20480;-79
2022/09/25 09:31:38;;;;;;;0.50;0.50;;;17.10;99.90;;;;;;5029587;27;20083;-82
2022/09/25 09:34:23;;;;;;;0.40;0.40;;;16.90;99.90;;;;;;4951587;28;20051;-80
2022/09/25 09:37:17;;;;;;;0.50;0.50;;;17.00;99.90;;;;;;5025581;27;20545;-80
2022/09/25 09:40:20;;;;;;;0.40;0.40;;;17.00;99.90;;;;;;5012304;27;20043;-78
2022/09/25 09:43:07;;;;;;;0.50;0.50;;;17.30;99.90;;;;;;5024432;27;20158;-80
2022/09/25 09:45:54;;;;;;;0.50;0.50;;;17.30;99.90;;;;;;5025048;27;20070;-79
2022/09/25 09:48:32;;;;;;;0.40;0.40;;;17.70;99.90;;;;;;5054929;27;20131;-79
2022/09/25 09:51:08;;;;;;;0.40;0.40;;;18.10;99.90;;;;;;5007380;27;20648;-79
2022/09/25 09:53:38;;;;;;;0.40;0.40;;;17.90;99.90;;;;;;5020661;27;20435;-79
2022/09/25 09:56:22;;;;;;;0.40;0.40;;;17.60;99.90;;;;;;5004358;27;20935;-81
2022/09/25 09:58:49;;;;;;;;;;;18.10;99.90;;;;;;5004422;27;20059;-78
2022/09/25 10:01:18;;;;;;;0.40;0.40;;;17.90;99.90;;;;;;5019212;27;20843;-81
2022/09/25 10:03:47;;;;;;;0.40;0.40;;;18.10;99.90;;;;;;5035690;27;20054;-80
2022/09/25 10:06:15;;;;;;;0.40;0.40;;;18.10;99.90;;;;;;5009205;28;20088;-79
2022/09/25 10:08:41;;;;;;;0.40;0.40;;;17.80;99.90;;;;;;5000355;27;20043;-79
2022/09/25 10:11:17;;;;;;;0.40;0.40;;;18.10;99.90;;;;;;5022253;27;20043;-80
2022/09/25 10:13:44;;;;;;;0.40;0.40;;;18.20;99.90;;;;;;5001442;27;20616;-79
2022/09/25 10:16:22;;;;;;;0.40;0.40;;;18.30;99.90;;;;;;5003341;28;20478;-79
2022/09/25 10:18:54;;;;;;;0.40;0.40;;;17.70;99.90;;;;;;5017405;27;20113;-79
2022/09/25 10:21:23;;;;;;;0.40;0.40;;;18.40;99.90;;;;;;5002333;28;20063;-79
2022/09/25 10:23:54;;;;;;;0.40;0.40;;;18.60;99.90;;;;;;5008394;27;20581;-79
2022/09/25 10:26:35;;;;;;;0.40;0.40;;;18.70;99.90;;;;;;5004205;27;20147;-79
2022/09/25 10:29:21;;;;;;;0.40;0.40;;;18.90;99.90;;;;;;5007573;27;20615;-79
2022/09/25 10:31:55;;;;;;;0.40;0.40;;;18.30;99.90;;;;;;4998765;27;20288;-80
2022/09/25 10:34:23;;;;;;;0.40;0.40;;;17.80;99.90;;;;;;5013288;27;20051;-79
2022/09/25 10:36:51;;;;;;;0.40;0.40;;;18.20;99.90;;;;;;5034813;27;20051;-76
2022/09/25 10:39:39;;;;;;;0.40;0.40;;;18.00;99.90;;;;;;5034699;27;20680;-81
2022/09/25 10:42:34;;;;;;;0.40;0.40;;;17.80;99.90;;;;;;5034984;27;20521;-80
2022/09/25 10:45:34;;;;;;;0.40;0.40;;;17.90;99.90;;;;;;5052706;27;20379;-80
2022/09/25 10:51:07;;;;;;;0.40;0.40;;;17.40;99.90;;;;;;5033739;27;20090;-80
2022/09/25 10:53:33;;;;;;;0.40;0.40;;;16.90;99.90;;;;;;5052741;27;20220;-80
2022/09/25 10:56:12;;;;;;;0.40;0.40;;;16.70;99.90;;;;;;5055221;27;20046;-79
2022/09/25 10:59:00;;;;;;;0.50;0.50;;;16.40;99.90;;;;;;5053502;27;20412;-81
2022/09/25 11:01:36;;;;;;;0.50;0.50;;;16.10;99.90;;;;;;5024537;27;20517;-78
2022/09/25 11:04:26;;;;;;;0.50;0.50;;;15.90;99.90;;;;;;5038724;27;20247;-80
2022/09/25 11:06:57;;;;;;;0.43;0.43;;;15.90;99.90;;;;;;5017999;27;20050;-81
2022/09/25 11:09:26;;;;;;;0.50;0.50;;;15.90;99.90;;;;;;5043164;27;20047;-80
2022/09/25 11:12:11;;;;;;;0.50;0.50;;;15.90;99.90;;;;;;5040758;27;20150;-79
2022/09/25 11:14:39;;;;;;;0.47;0.47;;;15.90;99.90;;;;;;5045776;27;20481;-79
2022/09/25 11:17:25;;;;;;;0.40;0.40;;;15.90;99.90;;;;;;5040687;27;20070;-79
2022/09/25 11:20:21;;;;;;;0.50;0.50;;;15.90;99.90;;;;;;5046453;27;20583;-80
2022/09/25 11:23:06;;;;;;;0.50;0.50;;;15.60;99.90;;;;;;5042689;27;20035;-80
2022/09/25 11:26:16;;;;;;;0.40;0.40;;;15.80;99.90;;;;;;5025603;27;20166;-78
2022/09/25 11:28:56;;;;;;;0.40;0.40;;;15.80;99.90;;;;;;5023064;27;20173;-79
2022/09/25 11:31:56;;;;;;;0.40;0.40;;;15.80;99.90;;;;;;4997896;28;20054;-80
2022/09/25 11:35:01;;;;;;;0.47;0.47;;;15.90;99.90;;;;;;5022349;27;20059;-80
2022/09/25 11:37:48;;;;;;;0.40;0.40;;;16.00;99.90;;;;;;5025620;27;20590;-79
2022/09/25 11:43:50;;;;;;;0.50;0.50;;;16.00;99.90;;;;;;5001648;28;20488;-77
2022/09/25 11:46:36;;;;;;;0.45;0.45;;;16.20;99.90;;;;;;4958775;27;21101;-80
2022/09/25 11:49:22;;;;;;;0.50;0.50;;;16.20;99.90;;;;;;5020409;27;20056;-78
2022/09/25 11:52:14;;;;;;;0.50;0.50;;;16.30;99.90;;;;;;5010950;28;20051;-79
2022/09/25 11:55:01;;;;;;;0.50;0.50;;;16.50;99.90;;;;;;5023718;28;20043;-80
2022/09/25 11:57:43;;;;;;;0.50;0.50;;;17.20;99.90;;;;;;5030023;27;20132;-79
2022/09/25 12:00:19;;;;;;;0.50;0.50;;;17.10;99.90;;;;;;5007216;28;20048;-80
2022/09/25 12:02:45;;;;;;;0.50;0.50;;;17.70;99.90;;;;;;5010530;28;20150;-80
2022/09/25 12:05:26;;;;;;;0.50;0.50;;;18.40;99.90;;;;;;4986616;28;20048;-81
2022/09/25 12:08:04;;;;;;;0.40;0.40;;;19.00;99.90;;;;;;5018881;28;20043;-79
2022/09/25 12:10:43;;;;;;;0.40;0.40;;;18.70;99.90;;;;;;5005691;27;20174;-82
2022/09/25 12:13:44;;;;;;;0.40;0.40;;;18.60;99.90;;;;;;5017021;27;20050;-78
2022/09/25 12:16:17;;;;;;;0.40;0.40;;;19.50;99.90;;;;;;5014708;27;20520;-77
2022/09/25 12:19:09;;;;;;;0.50;0.50;;;19.80;99.90;;;;;;5018682;27;20044;-77
2022/09/25 12:22:10;;;;;;;0.40;0.40;;;19.90;99.90;;;;;;5022075;28;20055;-78
2022/09/25 12:25:11;;;;;;;0.47;0.47;;;19.40;99.90;;;;;;5007993;27;20816;-78
2022/09/25 12:27:55;;;;;;;0.40;0.40;;;18.40;99.90;;;;;;4964752;27;20039;-79
2022/09/25 12:30:25;;;;;;;0.40;0.40;;;18.10;99.90;;;;;;5032340;27;20069;-79
2022/09/25 12:37:09;;;;;;;0.40;0.40;;;17.80;99.90;;;;;;4977279;28;20548;-78
2022/09/25 12:39:53;;;;;;;0.40;0.40;;;17.90;99.90;;;;;;4981793;28;20225;-80
2022/09/25 12:42:42;;;;;;;0.40;0.40;;;18.20;99.90;;;;;;4956104;28;21767;-79
2022/09/25 12:45:35;;;;;;;0.40;0.40;;;17.90;99.90;;;;;;4969809;28;20057;-79
2022/09/25 12:48:12;;;;;;;0.40;0.40;;;18.20;99.90;;;;;;4939269;28;20499;-78
2022/09/25 12:50:53;;;;;;;0.40;0.40;;;18.20;99.90;;;;;;4952290;28;20057;-79
2022/09/25 12:53:25;;;;;;;0.40;0.40;;;18.30;99.90;;;;;;4958499;28;21192;-80
2022/09/25 12:56:20;;;;;;;0.40;0.40;;;18.10;99.90;;;;;;4957755;28;20059;-79
2022/09/25 12:59:10;;;;;;;0.40;0.40;;;17.60;99.90;;;;;;4946836;28;20110;-80
2022/09/25 13:01:59;;;;;;;0.40;0.40;;;17.20;99.90;;;;;;4946377;28;20056;-79
2022/09/25 13:04:42;;;;;;;0.40;0.40;;;17.00;99.90;;;;;;4967994;28;20041;-79
2022/09/25 13:07:25;;;;;;;0.40;0.40;;;17.00;99.90;;;;;;4983479;28;21299;-79
2022/09/25 13:09:51;;;;;;;0.50;0.50;;;17.00;99.90;;;;;;4988549;28;21165;-79
2022/09/25 13:12:34;;;;;;;0.43;0.43;;;17.00;99.90;;;;;;4982451;28;20048;-80
2022/09/25 13:15:10;;;;;;;0.50;0.50;;;16.90;99.90;;;;;;4993463;28;20123;-79
2022/09/25 13:17:37;;;;;;;0.50;0.50;;;16.90;99.90;;;;;;4990254;28;20114;-79
2022/09/25 13:20:43;;;;;;;0.50;0.50;;;16.90;99.90;;;;;;4999296;28;20072;-80
2022/09/25 13:23:35;;;;;;;0.50;0.50;;;16.90;99.90;;;;;;4994127;28;20059;-78
2022/09/25 13:26:08;;;;;;;0.43;0.43;;;17.00;99.90;;;;;;5004580;28;20105;-79
2022/09/25 13:28:47;;;;;;;0.50;0.50;;;16.90;99.90;;;;;;4999842;28;20051;-79
2022/09/25 13:31:22;;;;;;;0.40;0.40;;;16.80;99.90;;;;;;5004961;28;20060;-79
2022/09/25 13:33:52;;;;;;;0.40;0.40;;;16.60;99.90;;;;;;4996492;28;20988;-80
2022/09/25 13:36:22;;;;;;;0.50;0.50;;;16.50;99.90;;;;;;4993495;28;20060;-80
2022/09/25 13:41:48;;;;;;;0.40;0.40;;;16.40;99.90;;;;;;4993897;28;20212;-79
2022/09/25 13:44:40;;;;;;;0.50;0.50;;;16.30;99.90;;;;;;5002975;27;20043;-80
2022/09/25 13:47:28;;;;;;;0.40;0.40;;;16.20;99.90;;;;;;5015931;28;20108;-79
2022/09/25 13:50:09;;;;;;;0.40;0.40;;;16.30;99.90;;;;;;5020913;28;20040;-78
2022/09/25 13:52:38;;;;;;;0.40;0.40;;;16.20;99.90;;;;;;5008822;28;20092;-79
2022/09/25 13:55:19;;;;;;;0.40;0.40;;;16.30;99.90;;;;;;5008953;28;20435;-79
2022/09/25 13:57:58;;;;;;;0.40;0.40;;;16.30;99.90;;;;;;5003743;27;20066;-78